Time;durP1;ratioP1;P1;durP2;ratioP2;P2;SDS_P1;SDS_P2;PMS_P1;PMS_P2;Temp;Humidity;BMP_temperature;BMP_pressure;BME280_temperature;BME280_humidity;BME280_pressure;Samples;Min_cycle;Max_cycle;Signal;HPM_P1;HPM_P2
2021/01/19 00:02:06;;;;;;;5.00;3.40;;;;;;;;;;5068404;28;20185;-77
2021/01/19 00:04:32;;;;;;;4.23;3.47;;;;;;;;;;5072116;28;20451;-77
2021/01/19 00:06:58;;;;;;;5.57;4.50;;;;;;;;;;5073717;28;20430;-77
2021/01/19 00:09:24;;;;;;;3.40;3.07;;;;;;;;;;5076732;28;20503;-77
2021/01/19 00:11:50;;;;;;;5.53;3.95;;;;;;;;;;5075810;28;20431;-77
2021/01/19 00:14:16;;;;;;;9.77;4.30;;;;;;;;;;5078386;28;20211;-77
2021/01/19 00:16:42;;;;;;;8.60;3.92;;;;;;;;;;5067272;28;20435;-77
2021/01/19 00:19:08;;;;;;;6.13;4.68;;;;;;;;;;5070256;28;20230;-77
2021/01/19 00:21:34;;;;;;;4.30;4.00;;;;;;;;;;5073710;28;20188;-77
2021/01/19 00:24:00;;;;;;;5.20;4.30;;;;;;;;;;5073215;28;20204;-77
2021/01/19 00:26:26;;;;;;;5.57;4.88;;;;;;;;;;5072218;28;20184;-77
2021/01/19 00:28:52;;;;;;;4.50;4.10;;;;;;;;;;5070960;28;20680;-78
2021/01/19 00:31:18;;;;;;;6.63;4.40;;;;;;;;;;5069934;28;21210;-77
2021/01/19 00:33:44;;;;;;;6.70;5.07;;;;;;;;;;5071435;28;20229;-77
2021/01/19 00:36:10;;;;;;;9.20;3.57;;;;;;;;;;5070083;28;20176;-77
2021/01/19 00:38:36;;;;;;;9.33;4.07;;;;;;;;;;5072142;28;20419;-77
2021/01/19 00:41:02;;;;;;;3.15;2.90;;;;;;;;;;5072126;28;20431;-77
2021/01/19 00:43:28;;;;;;;3.47;3.10;;;;;;;;;;5072358;28;20199;-77
2021/01/19 00:45:54;;;;;;;3.85;2.40;;;;;;;;;;5071227;28;20219;-76
2021/01/19 00:48:20;;;;;;;3.00;2.57;;;;;;;;;;5069934;28;20212;-77
2021/01/19 00:50:46;;;;;;;2.60;2.40;;;;;;;;;;5071965;28;20418;-77
2021/01/19 00:53:12;;;;;;;2.50;2.30;;;;;;;;;;5088609;28;20430;-77
2021/01/19 00:55:38;;;;;;;4.88;1.90;;;;;;;;;;5079903;28;20526;-77
2021/01/19 00:58:04;;;;;;;2.80;2.33;;;;;;;;;;5068261;28;20558;-77
2021/01/19 01:00:30;;;;;;;4.07;3.65;;;;;;;;;;5070991;28;20434;-77
2021/01/19 01:02:56;;;;;;;5.40;3.28;;;;;;;;;;5069700;28;20698;-77
2021/01/19 01:05:22;;;;;;;2.97;2.60;;;;;;;;;;5069314;28;20198;-76
2021/01/19 01:07:48;;;;;;;5.63;3.00;;;;;;;;;;5070214;28;20948;-76
2021/01/19 01:10:15;;;;;;;5.70;2.22;;;;;;;;;;5071797;28;20189;-77
2021/01/19 01:12:41;;;;;;;2.60;2.30;;;;;;;;;;5070976;28;20180;-77
2021/01/19 01:15:08;;;;;;;3.83;1.80;;;;;;;;;;5051336;28;20338;-76
2021/01/19 01:17:38;;;;;;;4.10;2.28;;;;;;;;;;5063156;28;20237;-77
2021/01/19 01:20:05;;;;;;;2.33;2.13;;;;;;;;;;5070706;28;20561;-77
2021/01/19 01:22:37;;;;;;;2.63;2.15;;;;;;;;;;5070038;28;20184;-77
2021/01/19 01:25:04;;;;;;;4.20;1.67;;;;;;;;;;5069968;28;20208;-77
2021/01/19 01:27:30;;;;;;;3.15;2.25;;;;;;;;;;5070632;28;20615;-77
2021/01/19 01:29:55;;;;;;;2.10;1.90;;;;;;;;;;5064745;28;20213;-77
2021/01/19 01:32:21;;;;;;;2.93;2.40;;;;;;;;;;5068379;28;20430;-77
2021/01/19 01:34:47;;;;;;;2.40;1.80;;;;;;;;;;5068739;28;20471;-76
2021/01/19 01:37:13;;;;;;;1.93;1.70;;;;;;;;;;5081801;28;20959;-77
2021/01/19 01:39:39;;;;;;;2.13;1.90;;;;;;;;;;5084606;28;20978;-77
2021/01/19 01:42:13;;;;;;;1.95;1.85;;;;;;;;;;5069215;28;20431;-77
2021/01/19 01:44:39;;;;;;;1.48;1.38;;;;;;;;;;5069592;28;20200;-77
2021/01/19 01:47:07;;;;;;;1.47;1.20;;;;;;;;;;5069719;28;20550;-77
2021/01/19 01:49:33;;;;;;;1.85;1.75;;;;;;;;;;5068942;28;21057;-77
2021/01/19 01:51:59;;;;;;;1.70;1.60;;;;;;;;;;5075455;28;20188;-77
2021/01/19 01:54:26;;;;;;;2.33;1.65;;;;;;;;;;5087478;28;20458;-77
2021/01/19 01:56:52;;;;;;;4.43;2.63;;;;;;;;;;5085964;28;20724;-77
2021/01/19 01:59:18;;;;;;;2.65;1.55;;;;;;;;;;5069589;28;20652;-77
2021/01/19 02:01:44;;;;;;;4.85;1.90;;;;;;;;;;5069925;28;20644;-77
2021/01/19 02:04:10;;;;;;;2.13;1.50;;;;;;;;;;5070532;28;20211;-77
2021/01/19 02:06:36;;;;;;;2.50;2.30;;;;;;;;;;5070530;28;20484;-76
2021/01/19 02:09:16;;;;;;;3.60;2.40;;;;;;;;;;5070266;28;20603;-76
2021/01/19 02:11:42;;;;;;;4.25;2.90;;;;;;;;;;5067138;28;20238;-77
2021/01/19 02:14:12;;;;;;;4.20;3.50;;;;;;;;;;5070109;28;20189;-76
2021/01/19 02:16:42;;;;;;;3.38;2.15;;;;;;;;;;5066711;28;20446;-76
2021/01/19 02:19:26;;;;;;;5.63;2.10;;;;;;;;;;5069779;28;20314;-76
2021/01/19 02:21:58;;;;;;;7.63;3.33;;;;;;;;;;5069021;28;20555;-76
2021/01/19 02:24:24;;;;;;;4.35;2.25;;;;;;;;;;5069306;28;20197;-76
2021/01/19 02:27:02;;;;;;;4.50;2.93;;;;;;;;;;5070096;28;20264;-76
2021/01/19 02:29:34;;;;;;;5.05;3.38;;;;;;;;;;5066645;28;20462;-76
2021/01/19 02:32:19;;;;;;;5.00;2.00;;;;;;;;;;5067385;28;20177;-76
2021/01/19 02:34:51;;;;;;;7.63;3.63;;;;;;;;;;5079806;28;20218;-78
2021/01/19 02:37:24;;;;;;;5.45;3.05;;;;;;;;;;5090817;28;20172;-78
2021/01/19 02:39:54;;;;;;;10.52;4.00;;;;;;;;;;5081309;28;20338;-78
2021/01/19 02:42:23;;;;;;;6.95;2.78;;;;;;;;;;5071510;28;20195;-78
2021/01/19 02:44:50;;;;;;;7.07;3.78;;;;;;;;;;5064839;28;20240;-76
2021/01/19 02:47:17;;;;;;;2.47;2.05;;;;;;;;;;5068868;28;20189;-77
2021/01/19 02:49:43;;;;;;;3.60;2.25;;;;;;;;;;5069629;28;20586;-76
2021/01/19 02:52:10;;;;;;;5.13;2.72;;;;;;;;;;5070827;28;20168;-76
2021/01/19 02:54:36;;;;;;;6.35;2.30;;;;;;;;;;5076383;28;20305;-76
2021/01/19 02:57:10;;;;;;;5.35;2.75;;;;;;;;;;5087163;28;20181;-76
2021/01/19 03:00:02;;;;;;;2.67;1.92;;;;;;;;;;5072950;28;20559;-76
2021/01/19 03:02:30;;;;;;;4.30;2.13;;;;;;;;;;5059273;28;20212;-78
2021/01/19 03:04:58;;;;;;;3.80;3.13;;;;;;;;;;5080382;28;20209;-78
2021/01/19 03:07:26;;;;;;;2.45;2.25;;;;;;;;;;5071446;28;20637;-78
2021/01/19 03:09:53;;;;;;;5.20;2.83;;;;;;;;;;5063326;28;20233;-78
2021/01/19 03:12:20;;;;;;;1.92;1.60;;;;;;;;;;5080334;28;20183;-78
2021/01/19 03:14:46;;;;;;;7.28;2.78;;;;;;;;;;5073247;28;20196;-78
2021/01/19 03:17:13;;;;;;;2.75;2.45;;;;;;;;;;5074873;28;20177;-78
2021/01/19 03:19:40;;;;;;;4.93;2.92;;;;;;;;;;5078763;28;20976;-78
2021/01/19 03:22:06;;;;;;;3.70;3.38;;;;;;;;;;5076039;28;20185;-78
2021/01/19 03:24:32;;;;;;;2.25;1.92;;;;;;;;;;5072904;28;20213;-76
2021/01/19 03:26:58;;;;;;;4.35;2.42;;;;;;;;;;5053864;28;20227;-76
2021/01/19 03:29:24;;;;;;;6.15;2.40;;;;;;;;;;5062010;28;20756;-76
2021/01/19 03:31:50;;;;;;;3.45;2.20;;;;;;;;;;5071551;28;20173;-76
2021/01/19 03:34:17;;;;;;;12.37;2.50;;;;;;;;;;5072089;28;20265;-76
2021/01/19 03:36:42;;;;;;;3.72;2.75;;;;;;;;;;5072822;28;20415;-76
2021/01/19 03:39:09;;;;;;;2.70;2.50;;;;;;;;;;5072617;28;20184;-76
2021/01/19 03:41:35;;;;;;;3.53;2.80;;;;;;;;;;5072106;28;20191;-76
2021/01/19 03:44:01;;;;;;;8.65;2.75;;;;;;;;;;5069366;28;20204;-76
2021/01/19 03:46:27;;;;;;;3.30;2.63;;;;;;;;;;5070733;28;20216;-76
2021/01/19 03:48:53;;;;;;;5.95;3.28;;;;;;;;;;5079471;28;20835;-76
2021/01/19 03:51:19;;;;;;;6.13;2.65;;;;;;;;;;5072331;28;20185;-76
2021/01/19 03:53:45;;;;;;;4.47;2.13;;;;;;;;;;5071466;28;20515;-75
2021/01/19 03:56:11;;;;;;;6.80;2.70;;;;;;;;;;5071576;28;20188;-76
2021/01/19 03:58:37;;;;;;;6.67;2.97;;;;;;;;;;5071359;28;20965;-76
2021/01/19 04:01:03;;;;;;;4.57;2.80;;;;;;;;;;5071449;28;20418;-76
2021/01/19 04:03:29;;;;;;;11.30;3.95;;;;;;;;;;5072081;28;20784;-76
2021/01/19 04:05:55;;;;;;;7.95;3.60;;;;;;;;;;5071673;28;20193;-76
2021/01/19 04:08:21;;;;;;;2.30;2.10;;;;;;;;;;5070131;28;20211;-76
2021/01/19 04:10:48;;;;;;;4.45;3.47;;;;;;;;;;5086376;28;20685;-76
2021/01/19 04:13:18;;;;;;;3.00;2.22;;;;;;;;;;5088341;28;20168;-76
2021/01/19 04:15:44;;;;;;;6.85;3.15;;;;;;;;;;5071053;28;20672;-76
2021/01/19 04:18:10;;;;;;;6.28;2.90;;;;;;;;;;5071719;28;20176;-76
2021/01/19 04:20:36;;;;;;;2.50;2.30;;;;;;;;;;5071723;28;20753;-76
2021/01/19 04:23:02;;;;;;;8.20;3.70;;;;;;;;;;5071668;28;20181;-76
2021/01/19 04:25:28;;;;;;;4.55;2.90;;;;;;;;;;5073173;28;20463;-76
2021/01/19 04:27:54;;;;;;;5.90;3.03;;;;;;;;;;5071399;28;20284;-76
2021/01/19 04:30:20;;;;;;;4.22;2.80;;;;;;;;;;5069367;28;20478;-77
2021/01/19 04:32:47;;;;;;;7.88;3.13;;;;;;;;;;5069381;28;20265;-76
2021/01/19 04:35:13;;;;;;;4.03;3.30;;;;;;;;;;5070278;28;20211;-78
2021/01/19 04:37:40;;;;;;;4.18;2.70;;;;;;;;;;5073371;28;20233;-76
2021/01/19 04:40:06;;;;;;;7.50;3.15;;;;;;;;;;5081997;28;20660;-76
2021/01/19 04:42:33;;;;;;;5.43;2.92;;;;;;;;;;5066479;28;20189;-76
2021/01/19 04:45:00;;;;;;;5.03;3.40;;;;;;;;;;5068815;28;20208;-77
2021/01/19 04:47:27;;;;;;;5.13;4.38;;;;;;;;;;5068557;28;20185;-77
2021/01/19 04:49:53;;;;;;;5.53;2.80;;;;;;;;;;5091430;28;20192;-76
2021/01/19 04:52:22;;;;;;;8.88;2.53;;;;;;;;;;5075777;28;20193;-77
2021/01/19 04:55:05;;;;;;;4.95;3.35;;;;;;;;;;5070250;28;20209;-76
2021/01/19 04:57:33;;;;;;;12.05;2.92;;;;;;;;;;5070553;28;20177;-77
2021/01/19 05:00:05;;;;;;;4.43;3.40;;;;;;;;;;5068180;28;20200;-77
2021/01/19 05:02:45;;;;;;;6.68;2.55;;;;;;;;;;5070135;28;20671;-76
2021/01/19 05:05:30;;;;;;;7.95;2.70;;;;;;;;;;5070365;28;20207;-77
2021/01/19 05:08:14;;;;;;;8.50;2.08;;;;;;;;;;5070560;28;20231;-76
2021/01/19 05:10:40;;;;;;;7.18;3.05;;;;;;;;;;5069055;28;20227;-76
2021/01/19 05:13:10;;;;;;;7.35;3.25;;;;;;;;;;5070256;28;20200;-77
2021/01/19 05:15:44;;;;;;;5.90;3.00;;;;;;;;;;5068379;28;20227;-77
2021/01/19 05:18:10;;;;;;;9.57;3.35;;;;;;;;;;5068970;28;20188;-77
2021/01/19 05:20:43;;;;;;;5.65;2.28;;;;;;;;;;5070831;28;20188;-77
2021/01/19 05:23:11;;;;;;;8.15;2.13;;;;;;;;;;5070360;28;20249;-77
2021/01/19 05:25:37;;;;;;;5.50;2.25;;;;;;;;;;5070774;28;20571;-76
2021/01/19 05:28:05;;;;;;;9.90;4.22;;;;;;;;;;5070038;28;20207;-77
2021/01/19 05:30:35;;;;;;;9.43;2.25;;;;;;;;;;5069835;28;20177;-77
2021/01/19 05:33:01;;;;;;;7.60;2.70;;;;;;;;;;5071143;28;20188;-77
2021/01/19 05:35:26;;;;;;;2.00;1.80;;;;;;;;;;5071396;28;20286;-77
2021/01/19 05:37:59;;;;;;;4.23;1.70;;;;;;;;;;5071609;28;20181;-76
2021/01/19 05:40:26;;;;;;;3.85;2.28;;;;;;;;;;5069560;28;20506;-77
2021/01/19 05:42:52;;;;;;;7.50;3.03;;;;;;;;;;5070721;28;20177;-76
2021/01/19 05:45:19;;;;;;;4.00;2.38;;;;;;;;;;5070382;28;20240;-76
2021/01/19 05:47:45;;;;;;;4.45;2.30;;;;;;;;;;5062476;28;20461;-78
2021/01/19 05:50:12;;;;;;;3.25;2.22;;;;;;;;;;5072048;28;20699;-77
2021/01/19 05:52:38;;;;;;;2.25;2.05;;;;;;;;;;5054592;28;20564;-77
2021/01/19 05:55:04;;;;;;;1.77;1.50;;;;;;;;;;5068274;28;20203;-77
2021/01/19 05:57:30;;;;;;;6.63;2.47;;;;;;;;;;5054826;28;20174;-77
2021/01/19 06:00:00;;;;;;;7.47;2.10;;;;;;;;;;5060055;28;20184;-77
2021/01/19 06:02:42;;;;;;;2.83;2.05;;;;;;;;;;5086976;28;20177;-78
2021/01/19 06:05:12;;;;;;;3.95;1.50;;;;;;;;;;5057583;28;20205;-78
2021/01/19 06:07:39;;;;;;;9.70;1.73;;;;;;;;;;5058691;28;20544;-77
2021/01/19 06:10:08;;;;;;;4.20;2.28;;;;;;;;;;5063989;28;20259;-78
2021/01/19 06:12:35;;;;;;;6.88;1.80;;;;;;;;;;5061732;28;20174;-78
2021/01/19 06:15:01;;;;;;;3.75;1.85;;;;;;;;;;5051139;28;20221;-78
2021/01/19 06:17:27;;;;;;;6.40;3.28;;;;;;;;;;5069187;28;20184;-77
2021/01/19 06:19:53;;;;;;;2.93;2.00;;;;;;;;;;5062136;28;20555;-77
2021/01/19 06:22:25;;;;;;;1.80;1.50;;;;;;;;;;5070750;28;20529;-78
2021/01/19 06:24:52;;;;;;;2.60;1.42;;;;;;;;;;5071704;28;20219;-77
2021/01/19 06:27:24;;;;;;;3.60;1.50;;;;;;;;;;5073242;28;20177;-77
2021/01/19 06:29:59;;;;;;;4.63;1.88;;;;;;;;;;5076395;28;20570;-78
2021/01/19 06:32:25;;;;;;;1.90;1.50;;;;;;;;;;5074070;28;20195;-78
2021/01/19 06:34:52;;;;;;;1.98;1.77;;;;;;;;;;5071966;28;20828;-78
2021/01/19 06:37:28;;;;;;;3.75;1.88;;;;;;;;;;5075803;28;20191;-78
2021/01/19 06:39:59;;;;;;;2.80;1.33;;;;;;;;;;5073107;28;20173;-78
2021/01/19 06:42:26;;;;;;;4.00;1.65;;;;;;;;;;5074548;28;20184;-78
2021/01/19 06:44:54;;;;;;;5.82;1.48;;;;;;;;;;5074393;28;20211;-78
2021/01/19 06:47:20;;;;;;;4.72;1.38;;;;;;;;;;5076159;28;20215;-78
2021/01/19 06:49:47;;;;;;;1.98;1.65;;;;;;;;;;5075476;28;20706;-78
2021/01/19 06:52:14;;;;;;;2.70;2.17;;;;;;;;;;5075338;28;20648;-78
2021/01/19 06:54:52;;;;;;;2.60;1.30;;;;;;;;;;5075321;28;20197;-78
2021/01/19 06:57:24;;;;;;;1.25;0.90;;;;;;;;;;5074193;28;20204;-78
2021/01/19 06:59:54;;;;;;;1.38;1.00;;;;;;;;;;5074507;28;20189;-78
2021/01/19 07:02:23;;;;;;;1.10;0.85;;;;;;;;;;5074407;28;20265;-78
2021/01/19 07:04:55;;;;;;;1.83;1.10;;;;;;;;;;5074632;28;20200;-78
2021/01/19 07:07:42;;;;;;;1.00;0.80;;;;;;;;;;5074456;28;20179;-77
2021/01/19 07:10:08;;;;;;;2.83;1.60;;;;;;;;;;5074634;28;20204;-78
2021/01/19 07:12:43;;;;;;;2.78;1.27;;;;;;;;;;5074597;28;20165;-78
2021/01/19 07:15:09;;;;;;;2.08;1.38;;;;;;;;;;5074460;28;20200;-78
2021/01/19 07:17:47;;;;;;;2.53;1.02;;;;;;;;;;5073379;28;20205;-78
2021/01/19 07:20:14;;;;;;;2.03;0.98;;;;;;;;;;5076307;28;20185;-78
2021/01/19 07:22:58;;;;;;;1.50;1.38;;;;;;;;;;5083659;28;20177;-78
2021/01/19 07:25:25;;;;;;;2.10;1.70;;;;;;;;;;5081181;28;20230;-77
2021/01/19 07:27:51;;;;;;;2.60;1.70;;;;;;;;;;5074071;28;20568;-78
2021/01/19 07:30:18;;;;;;;2.25;1.55;;;;;;;;;;5073153;28;20220;-78
2021/01/19 07:32:49;;;;;;;4.22;2.05;;;;;;;;;;5073693;28;20242;-78
2021/01/19 07:35:15;;;;;;;5.55;2.35;;;;;;;;;;5073595;28;20185;-78
2021/01/19 07:37:41;;;;;;;1.83;1.73;;;;;;;;;;5072105;28;20184;-78
2021/01/19 07:40:18;;;;;;;1.50;1.35;;;;;;;;;;5076178;28;20184;-79
2021/01/19 07:42:44;;;;;;;2.63;1.38;;;;;;;;;;5077009;28;20176;-78
2021/01/19 07:45:10;;;;;;;1.10;1.00;;;;;;;;;;5075786;28;20238;-82
2021/01/19 07:47:39;;;;;;;1.35;1.20;;;;;;;;;;5083514;28;20188;-78
2021/01/19 07:50:26;;;;;;;1.80;1.45;;;;;;;;;;5088007;28;20204;-79
2021/01/19 07:52:53;;;;;;;1.27;1.17;;;;;;;;;;5074654;28;20169;-78
2021/01/19 07:55:19;;;;;;;1.10;1.00;;;;;;;;;;5074704;28;20813;-78
2021/01/19 07:57:47;;;;;;;4.40;1.55;;;;;;;;;;5074642;28;20185;-78
2021/01/19 08:00:13;;;;;;;1.55;1.00;;;;;;;;;;5074464;28;20598;-78
2021/01/19 08:02:39;;;;;;;2.10;0.90;;;;;;;;;;5074133;28;20235;-77
2021/01/19 08:05:05;;;;;;;1.30;0.98;;;;;;;;;;5071972;28;20204;-78
2021/01/19 08:07:40;;;;;;;1.15;0.88;;;;;;;;;;5073296;28;20577;-81
2021/01/19 08:10:27;;;;;;;1.58;1.15;;;;;;;;;;5072650;28;20207;-78
2021/01/19 08:12:55;;;;;;;2.92;1.95;;;;;;;;;;5064007;28;20196;-76
2021/01/19 08:15:21;;;;;;;1.95;1.75;;;;;;;;;;5052846;28;20563;-77
2021/01/19 08:17:52;;;;;;;2.83;1.37;;;;;;;;;;5070011;28;20191;-77
2021/01/19 08:20:25;;;;;;;2.65;1.27;;;;;;;;;;5066427;28;20537;-77
2021/01/19 08:22:51;;;;;;;1.20;1.10;;;;;;;;;;5073368;28;20271;-78
2021/01/19 08:25:29;;;;;;;2.30;1.40;;;;;;;;;;5073955;28;20669;-77
2021/01/19 08:27:59;;;;;;;2.20;1.25;;;;;;;;;;5067751;28;20192;-77
2021/01/19 08:30:30;;;;;;;2.85;1.20;;;;;;;;;;5075259;28;20325;-77
2021/01/19 08:32:56;;;;;;;1.25;1.15;;;;;;;;;;5061265;28;20177;-77
2021/01/19 08:35:23;;;;;;;1.42;1.23;;;;;;;;;;5065892;28;20193;-77
2021/01/19 08:37:50;;;;;;;1.20;1.10;;;;;;;;;;5067352;28;20187;-77
2021/01/19 08:40:30;;;;;;;8.07;1.60;;;;;;;;;;5071594;28;20192;-77
2021/01/19 08:42:56;;;;;;;2.25;1.10;;;;;;;;;;5069827;28;20255;-78
2021/01/19 08:45:23;;;;;;;1.88;1.45;;;;;;;;;;5072270;28;20205;-78
2021/01/19 08:47:54;;;;;;;1.40;1.10;;;;;;;;;;5070540;28;20272;-78
2021/01/19 08:50:20;;;;;;;1.80;0.98;;;;;;;;;;5071556;28;20699;-78
2021/01/19 08:52:46;;;;;;;1.52;1.10;;;;;;;;;;5077986;28;20208;-78
2021/01/19 08:55:14;;;;;;;1.30;1.20;;;;;;;;;;5078368;28;20204;-78
2021/01/19 08:57:40;;;;;;;2.50;1.00;;;;;;;;;;5074308;28;20184;-78
2021/01/19 09:00:07;;;;;;;1.15;1.05;;;;;;;;;;5073873;28;20234;-78
2021/01/19 09:02:32;;;;;;;2.33;1.63;;;;;;;;;;5071609;28;20176;-77
2021/01/19 09:04:58;;;;;;;1.13;1.00;;;;;;;;;;5078244;28;20261;-78
2021/01/19 09:07:29;;;;;;;8.05;0.90;;;;;;;;;;5079745;28;20428;-78
2021/01/19 09:09:56;;;;;;;2.20;1.00;;;;;;;;;;5076946;28;20297;-78
2021/01/19 09:12:22;;;;;;;1.30;0.90;;;;;;;;;;5070383;28;20509;-77
2021/01/19 09:14:51;;;;;;;1.35;0.90;;;;;;;;;;5072877;28;20200;-78
2021/01/19 09:17:24;;;;;;;2.88;1.00;;;;;;;;;;5071971;28;20177;-78
2021/01/19 09:20:00;;;;;;;1.25;1.13;;;;;;;;;;5072872;28;20432;-78
2021/01/19 09:22:27;;;;;;;1.33;1.23;;;;;;;;;;5060014;28;20200;-78
2021/01/19 09:24:55;;;;;;;1.20;0.90;;;;;;;;;;5071302;28;20212;-78
2021/01/19 09:27:21;;;;;;;1.65;1.00;;;;;;;;;;5073921;28;20187;-78
2021/01/19 09:29:47;;;;;;;1.00;0.80;;;;;;;;;;5069763;28;20216;-77
2021/01/19 09:32:13;;;;;;;2.50;0.90;;;;;;;;;;5070976;28;20805;-77
2021/01/19 09:34:39;;;;;;;1.97;1.00;;;;;;;;;;5069883;28;20501;-77
2021/01/19 09:37:05;;;;;;;1.67;0.98;;;;;;;;;;5071039;28;20407;-77
2021/01/19 09:39:32;;;;;;;2.67;0.80;;;;;;;;;;5070242;28;20553;-77
2021/01/19 09:41:59;;;;;;;1.20;1.00;;;;;;;;;;5069459;28;20188;-77
2021/01/19 09:44:26;;;;;;;1.30;1.05;;;;;;;;;;5068934;28;20235;-77
2021/01/19 09:46:53;;;;;;;1.20;1.00;;;;;;;;;;5068585;28;20180;-77
2021/01/19 09:49:23;;;;;;;1.05;0.95;;;;;;;;;;5069754;28;20554;-77
2021/01/19 09:51:50;;;;;;;1.30;0.93;;;;;;;;;;5070402;28;20219;-77
2021/01/19 09:54:23;;;;;;;0.90;0.70;;;;;;;;;;5073308;28;20215;-76
2021/01/19 09:56:59;;;;;;;1.52;1.02;;;;;;;;;;5089207;28;20263;-77
2021/01/19 09:59:26;;;;;;;1.67;0.88;;;;;;;;;;5070551;28;20180;-77
2021/01/19 10:01:54;;;;;;;1.40;0.90;;;;;;;;;;5072211;28;20575;-76
2021/01/19 10:04:20;;;;;;;1.00;0.82;;;;;;;;;;5073604;28;20208;-76
2021/01/19 10:06:46;;;;;;;1.10;0.88;;;;;;;;;;5074282;28;20881;-77
2021/01/19 10:09:22;;;;;;;2.42;1.02;;;;;;;;;;5073288;28;20299;-76
2021/01/19 10:11:56;;;;;;;1.40;1.02;;;;;;;;;;5074275;28;20211;-76
2021/01/19 10:14:22;;;;;;;1.20;0.80;;;;;;;;;;5074203;28;20253;-77
2021/01/19 10:16:49;;;;;;;1.10;1.00;;;;;;;;;;5074240;28;20185;-77
2021/01/19 10:19:21;;;;;;;1.20;0.70;;;;;;;;;;5074639;28;20233;-77
2021/01/19 10:21:49;;;;;;;2.00;1.15;;;;;;;;;;5072998;28;20278;-77
2021/01/19 10:24:16;;;;;;;2.17;1.30;;;;;;;;;;5072743;28;20205;-77
2021/01/19 10:26:44;;;;;;;1.20;0.90;;;;;;;;;;5074530;28;20225;-77
2021/01/19 10:29:10;;;;;;;1.00;0.80;;;;;;;;;;5073799;28;20251;-77
2021/01/19 10:31:46;;;;;;;3.08;0.98;;;;;;;;;;5074517;28;20631;-77
2021/01/19 10:34:14;;;;;;;1.30;0.85;;;;;;;;;;5072169;28;20228;-77
2021/01/19 10:36:51;;;;;;;1.35;1.25;;;;;;;;;;5064824;28;20184;-77
2021/01/19 10:39:17;;;;;;;2.08;1.05;;;;;;;;;;5074498;28;20177;-78
2021/01/19 10:41:43;;;;;;;1.10;0.90;;;;;;;;;;5071421;28;20181;-77
2021/01/19 10:44:11;;;;;;;1.00;0.90;;;;;;;;;;5062291;28;20209;-77
2021/01/19 10:46:38;;;;;;;1.00;0.90;;;;;;;;;;5074150;28;20180;-77
2021/01/19 10:49:09;;;;;;;1.17;1.08;;;;;;;;;;5079907;28;20209;-77
2021/01/19 10:51:36;;;;;;;1.55;1.00;;;;;;;;;;5078805;28;20671;-77
2021/01/19 10:54:22;;;;;;;1.00;0.90;;;;;;;;;;5075407;28;20283;-77
2021/01/19 10:57:02;;;;;;;1.20;1.10;;;;;;;;;;5074301;28;20548;-77
2021/01/19 10:59:27;;;;;;;1.30;1.08;;;;;;;;;;5069637;28;20181;-77
2021/01/19 11:01:53;;;;;;;1.20;1.10;;;;;;;;;;5073360;28;20727;-77
2021/01/19 11:04:20;;;;;;;1.02;0.80;;;;;;;;;;5073894;28;20419;-77
2021/01/19 11:06:47;;;;;;;2.00;1.05;;;;;;;;;;5072478;28;20665;-77
2021/01/19 11:09:14;;;;;;;1.60;1.10;;;;;;;;;;5073646;28;20712;-77
2021/01/19 11:11:40;;;;;;;1.67;1.33;;;;;;;;;;5068942;28;20275;-77
2021/01/19 11:14:07;;;;;;;2.20;1.03;;;;;;;;;;5071644;28;20220;-77
2021/01/19 11:16:34;;;;;;;1.15;1.00;;;;;;;;;;5072621;28;20455;-77
2021/01/19 11:19:00;;;;;;;2.25;1.40;;;;;;;;;;5059371;28;20251;-77
2021/01/19 11:21:26;;;;;;;1.10;1.00;;;;;;;;;;5056511;28;20192;-77
2021/01/19 11:23:53;;;;;;;1.20;1.10;;;;;;;;;;5056537;28;20182;-77
2021/01/19 11:26:19;;;;;;;1.00;0.80;;;;;;;;;;5071479;28;20534;-77
2021/01/19 11:28:45;;;;;;;1.50;1.20;;;;;;;;;;5087127;28;20208;-77
2021/01/19 11:31:11;;;;;;;1.10;1.00;;;;;;;;;;5074423;28;20252;-77
2021/01/19 11:33:37;;;;;;;2.28;1.35;;;;;;;;;;5077281;28;20891;-77
2021/01/19 11:36:03;;;;;;;1.27;1.17;;;;;;;;;;5075101;28;20655;-77
2021/01/19 11:38:30;;;;;;;1.90;1.50;;;;;;;;;;5073069;28;20287;-76
2021/01/19 11:40:56;;;;;;;3.05;1.08;;;;;;;;;;5069941;28;20169;-77
2021/01/19 11:43:22;;;;;;;1.20;1.10;;;;;;;;;;5073422;28;20188;-77
2021/01/19 11:45:48;;;;;;;2.08;1.10;;;;;;;;;;5072815;28;20192;-77
2021/01/19 11:48:13;;;;;;;1.23;1.13;;;;;;;;;;5072886;28;20181;-77
2021/01/19 11:50:39;;;;;;;1.53;1.10;;;;;;;;;;5070168;28;20443;-78
2021/01/19 11:53:05;;;;;;;1.83;1.10;;;;;;;;;;5065322;28;20454;-77
2021/01/19 11:55:31;;;;;;;1.97;1.33;;;;;;;;;;5073068;28;20483;-77
2021/01/19 11:57:57;;;;;;;1.70;1.00;;;;;;;;;;5073377;28;20423;-77
2021/01/19 12:00:23;;;;;;;1.88;1.20;;;;;;;;;;5073182;28;20650;-77
2021/01/19 12:02:49;;;;;;;1.30;1.02;;;;;;;;;;5074280;28;20644;-77
2021/01/19 12:05:15;;;;;;;1.93;1.10;;;;;;;;;;5073270;28;20208;-77
2021/01/19 12:07:41;;;;;;;1.67;1.27;;;;;;;;;;5074926;28;20415;-78
2021/01/19 12:10:08;;;;;;;5.47;1.20;;;;;;;;;;5073805;28;20216;-78
2021/01/19 12:12:35;;;;;;;1.20;1.10;;;;;;;;;;5078621;28;20259;-78
2021/01/19 12:15:01;;;;;;;1.65;1.42;;;;;;;;;;5079794;28;20211;-77
2021/01/19 12:17:27;;;;;;;1.93;1.33;;;;;;;;;;5076119;28;20214;-78
2021/01/19 12:19:53;;;;;;;1.30;0.97;;;;;;;;;;5074690;28;20431;-77
2021/01/19 12:22:19;;;;;;;6.70;1.60;;;;;;;;;;5074907;28;20522;-78
2021/01/19 12:24:45;;;;;;;2.83;1.30;;;;;;;;;;5073710;28;20273;-77
2021/01/19 12:27:11;;;;;;;2.07;1.87;;;;;;;;;;5073831;28;20403;-78
2021/01/19 12:29:37;;;;;;;3.15;1.55;;;;;;;;;;5080542;28;20454;-78
2021/01/19 12:32:06;;;;;;;1.60;1.50;;;;;;;;;;5081857;28;20177;-77
2021/01/19 12:34:32;;;;;;;2.42;1.10;;;;;;;;;;5081771;28;20185;-77
2021/01/19 12:36:58;;;;;;;1.20;1.10;;;;;;;;;;5075203;28;20172;-77
2021/01/19 12:39:24;;;;;;;1.33;1.23;;;;;;;;;;5075067;28;20181;-78
2021/01/19 12:41:51;;;;;;;1.67;1.57;;;;;;;;;;5073425;28;20229;-78
2021/01/19 12:44:17;;;;;;;1.13;1.02;;;;;;;;;;5074902;28;20423;-78
2021/01/19 12:46:43;;;;;;;1.87;1.40;;;;;;;;;;5074279;28;20176;-77
2021/01/19 12:49:09;;;;;;;1.23;1.00;;;;;;;;;;5074712;28;20465;-78
2021/01/19 12:51:35;;;;;;;5.78;1.50;;;;;;;;;;5074296;28;20983;-77
2021/01/19 12:54:01;;;;;;;2.10;1.17;;;;;;;;;;5073018;28;20200;-78
2021/01/19 12:56:27;;;;;;;6.80;1.40;;;;;;;;;;5073047;28;20407;-77
2021/01/19 12:58:53;;;;;;;1.30;1.20;;;;;;;;;;5072514;28;20518;-77
2021/01/19 13:01:19;;;;;;;1.20;1.10;;;;;;;;;;5072664;28;20251;-77
2021/01/19 13:03:45;;;;;;;1.83;1.10;;;;;;;;;;5072473;28;20177;-77
2021/01/19 13:06:11;;;;;;;3.25;1.40;;;;;;;;;;5071092;28;20179;-77
2021/01/19 13:08:38;;;;;;;1.60;1.20;;;;;;;;;;5072122;28;20201;-77
2021/01/19 13:11:04;;;;;;;2.05;1.70;;;;;;;;;;5072104;28;20252;-77
2021/01/19 13:13:30;;;;;;;2.17;1.50;;;;;;;;;;5072120;28;20604;-77
2021/01/19 13:15:57;;;;;;;1.73;1.42;;;;;;;;;;5070620;28;20279;-77
2021/01/19 13:18:22;;;;;;;1.98;1.85;;;;;;;;;;5072447;28;20181;-77
2021/01/19 13:20:50;;;;;;;2.60;1.70;;;;;;;;;;5072609;28;20176;-77
2021/01/19 13:23:18;;;;;;;2.28;1.85;;;;;;;;;;5072201;28;20411;-77
2021/01/19 13:25:45;;;;;;;1.48;1.10;;;;;;;;;;5072270;28;20196;-77
2021/01/19 13:28:11;;;;;;;1.92;1.65;;;;;;;;;;5071864;28;20203;-77
2021/01/19 13:30:37;;;;;;;2.35;1.10;;;;;;;;;;5071992;28;20200;-78
2021/01/19 13:33:03;;;;;;;1.40;1.30;;;;;;;;;;5072164;28;20218;-78
2021/01/19 13:35:29;;;;;;;3.00;1.50;;;;;;;;;;5070754;28;20591;-78
2021/01/19 13:37:55;;;;;;;1.48;1.38;;;;;;;;;;5070228;28;20503;-77
2021/01/19 13:40:21;;;;;;;2.60;1.57;;;;;;;;;;5072161;28;20741;-78
2021/01/19 13:42:47;;;;;;;1.38;1.27;;;;;;;;;;5072271;28;20900;-77
2021/01/19 13:45:13;;;;;;;1.50;1.40;;;;;;;;;;5071968;28;20196;-77
2021/01/19 13:47:39;;;;;;;2.65;1.55;;;;;;;;;;5071795;28;20203;-78
2021/01/19 13:50:05;;;;;;;1.30;1.20;;;;;;;;;;5087457;28;20200;-77
2021/01/19 13:52:31;;;;;;;1.40;1.30;;;;;;;;;;5071211;28;20414;-78
2021/01/19 13:54:57;;;;;;;1.67;1.58;;;;;;;;;;5063087;28;20197;-78
2021/01/19 13:57:23;;;;;;;4.80;1.50;;;;;;;;;;5072608;28;20538;-77
2021/01/19 13:59:49;;;;;;;5.87;1.97;;;;;;;;;;5071930;28;21086;-77
2021/01/19 14:02:15;;;;;;;2.40;1.83;;;;;;;;;;5072350;28;20411;-78
2021/01/19 14:04:41;;;;;;;1.73;1.60;;;;;;;;;;5087395;28;20442;-78
2021/01/19 14:07:07;;;;;;;1.70;1.60;;;;;;;;;;5071623;28;20808;-77
2021/01/19 14:09:33;;;;;;;3.10;1.80;;;;;;;;;;5072010;28;20830;-78
2021/01/19 14:11:59;;;;;;;1.98;1.70;;;;;;;;;;5074164;28;20411;-77
2021/01/19 14:14:25;;;;;;;2.57;1.23;;;;;;;;;;5075333;28;20184;-77
2021/01/19 14:16:58;;;;;;;2.00;1.40;;;;;;;;;;5074290;28;20415;-77
2021/01/19 14:19:24;;;;;;;2.05;1.70;;;;;;;;;;5071789;28;20417;-77
2021/01/19 14:22:08;;;;;;;2.13;1.70;;;;;;;;;;5071287;28;20612;-78
2021/01/19 14:24:34;;;;;;;3.88;2.10;;;;;;;;;;5070991;28;20446;-78
2021/01/19 14:27:00;;;;;;;1.80;1.70;;;;;;;;;;5071077;28;20238;-78
2021/01/19 14:29:26;;;;;;;2.15;1.92;;;;;;;;;;5069872;28;20494;-78
2021/01/19 14:31:52;;;;;;;1.70;1.52;;;;;;;;;;5071688;28;20264;-78
2021/01/19 14:34:18;;;;;;;1.60;1.50;;;;;;;;;;5071161;28;20292;-78
2021/01/19 14:36:45;;;;;;;2.22;1.83;;;;;;;;;;5071986;28;20173;-78
2021/01/19 14:39:12;;;;;;;4.85;1.80;;;;;;;;;;5072270;28;20185;-78
2021/01/19 14:41:41;;;;;;;2.00;1.90;;;;;;;;;;5071934;28;20231;-78
2021/01/19 14:44:07;;;;;;;2.10;2.00;;;;;;;;;;5072084;28;20885;-78
2021/01/19 14:46:34;;;;;;;1.80;1.70;;;;;;;;;;5072018;28;20235;-78
2021/01/19 14:49:01;;;;;;;1.73;1.63;;;;;;;;;;5089682;28;20204;-78